Latest Weather Observations for Blackwater Airport

IDQ60801

Issued at 5:42 pm EST Thursday 18 July 2019 (issued every 10 minutes, with the page automatically refreshed every 10 minutes)

About weather observations | Map of weather stations | Latest weather observations for QLD | Other Formats
Station Details ID: 035134 Name: BLACKWATER AIRPORT Lat: -23.60 Lon: 148.81 Height: 192.95 m
Data from the previous 72 hours. | See also: Recent months at Blackwater Airport
Date/Time
EST
Temp
°C
App
Temp
°C
Dew
Point
°C
Rel
Hum
%
Delta-T
°C
Wind Press
QNH
hPa
Press
MSL
hPa
Rain since
9am
mm
Dir  Spd
km/h
Gust
km/h
Spd
kts
Gust
kts
18/05:30pm 17.0 12.0 -4.3 23 8.4 SSW 13 15 7 8 1018.0 1017.7 0.0
18/05:00pm 20.2 15.1 -5.6 17 10.3 S 13 19 7 10 1017.8 1017.5 0.0
18/04:30pm 21.2 15.4 -4.8 17 10.7 SSW 17 20 9 11 1017.7 1017.4 0.0
18/04:00pm 21.5 15.1 -7.1 14 11.2 SSW 19 26 10 14 1017.6 1017.3 0.0
18/03:30pm 21.7 15.7 -6.9 14 11.3 S 17 26 9 14 1017.5 1017.2 0.0
18/03:00pm 21.8 15.9 -5.9 15 11.2 SW 17 26 9 14 1017.5 1017.2 0.0
18/02:30pm 21.8 15.8 -6.8 14 11.3 SSW 17 26 9 14 1017.6 1017.3 0.0
18/02:00pm 21.3 15.3 -6.3 15 11.0 SSW 17 26 9 14 1017.8 1017.5 0.0
18/01:30pm 21.6 16.5 -5.3 16 11.0 S 13 20 7 11 1017.9 1017.6 0.0
18/01:00pm 20.9 15.1 -5.0 17 10.5 SSE 17 28 9 15 1018.5 1018.2 0.0
18/12:30pm 20.4 14.0 -4.7 18 10.2 SSW 20 32 11 17 1019.2 1019.0 0.0
18/12:00pm 20.1 14.4 -1.1 24 9.2 S 19 28 10 15 1020.1 1019.8 0.0
18/11:30am 18.8 13.5 -0.6 27 8.5 S 17 28 9 15 1020.7 1020.4 0.0
18/11:00am 18.7 12.9 -0.2 28 8.3 S 20 33 11 18 1021.1 1020.8 0.0
18/10:30am 17.7 11.5 -0.1 30 7.8 S 22 30 12 16 1021.5 1021.2 0.0
18/10:00am 17.0 11.3 0.6 33 7.2 S 20 32 11 17 1021.9 1021.6 0.0
18/09:30am 15.6 9.1 0.2 35 6.6 SSE 24 33 13 18 1021.8 1021.5 0.0
18/09:00am 15.2 8.8 1.0 38 6.2 SSE 24 33 13 18 1021.7 1021.4 0.0
18/08:30am 14.1 7.4 1.7 43 5.4 SSE 26 33 14 18 1021.2 1020.9 0.0
18/08:00am 12.8 5.7 1.5 46 4.9 S 28 41 15 22 1021.0 1020.7 0.0
18/07:30am 12.1 5.4 1.7 49 4.5 S 26 37 14 20 1020.5 1020.2 0.0
18/07:00am 10.5 4.9 1.3 53 3.9 S 20 24 11 13 1020.2 1019.9 0.0
18/06:30am 10.1 4.6 0.7 52 3.9 S 19 22 10 12 1019.8 1019.5 0.0
18/06:00am 10.8 6.1 1.1 51 4.1 S 15 20 8 11 1019.9 1019.6 0.0
18/05:30am 6.7 2.0 0.6 65 2.4 S 15 17 8 9 1019.7 1019.4 0.0
18/05:00am 6.1 0.9 0.0 65 2.4 SSW 17 19 9 10 1019.4 1019.2 0.0
18/04:30am 5.9 0.7 0.0 66 2.3 SSW 17 17 9 9 1019.1 1018.9 0.0
18/04:00am 6.7 1.1 -0.1 62 2.7 S 19 20 10 11 1019.1 1018.9 0.0
18/03:30am 7.0 1.5 0.5 63 2.6 SSW 19 19 10 10 1019.2 1019.0 0.0
18/03:00am 6.8 1.5 -0.4 60 2.8 SSW 17 20 9 11 1019.4 1019.2 0.0
18/02:30am 6.8 1.8 -0.9 58 3.0 SSW 15 17 8 9 1019.4 1019.2 0.0
18/02:00am 8.4 3.5 -0.6 53 3.5 SSW 15 15 8 8 1019.7 1019.4 0.0
18/01:30am 8.2 3.3 -0.8 53 3.5 SSW 15 17 8 9 1019.6 1019.3 0.0
18/01:00am 7.9 2.6 -0.3 56 3.2 SSW 17 19 9 10 1019.7 1019.4 0.0
18/12:30am 7.2 1.9 -0.7 57 3.1 SSW 17 19 9 10 1019.8 1019.5 0.0
18/12:00am 7.9 3.3 -0.8 54 3.4 SSW 13 17 7 9 1019.8 1019.5 0.0
 
Date/Time
EST
Temp
°C
App
Temp
°C
Dew
Point
°C
Rel
Hum
%
Delta-T
°C
Wind Press
QNH
hPa
Press
MSL
hPa
Rain since
9am
mm
Dir  Spd
km/h
Gust
km/h
Spd
kts
Gust
kts
17/11:30pm 10.3 5.8 -0.5 47 4.4 S 13 17 7 9 1020.0 1019.7 0.0
17/11:00pm 9.4 5.3 -0.5 50 3.9 S 11 13 6 7 1020.1 1019.8 0.0
17/10:30pm 9.4 5.2 -0.8 49 4.0 S 11 13 6 7 1020.3 1020.0 0.0
17/10:00pm 10.5 6.4 -0.3 47 4.4 S 11 13 6 7 1020.3 1020.0 0.0
17/09:30pm 10.2 6.0 -0.6 47 4.3 S 11 13 6 7 1020.3 1020.0 0.0
17/09:00pm 9.7 5.1 -0.8 48 4.2 S 13 13 7 7 1020.2 1019.9 0.0
17/08:30pm 12.7 8.2 -0.5 40 5.4 SSE 13 15 7 8 1020.1 1019.8 0.0
17/08:00pm 11.9 8.0 -1.6 39 5.4 SSE 9 13 5 7 1020.0 1019.7 0.0
17/07:30pm 10.5 6.3 -0.6 46 4.5 S 11 13 6 7 1019.7 1019.4 0.0
17/07:00pm 11.5 6.5 -1.3 41 5.1 S 15 17 8 9 1019.4 1019.2 0.0
17/06:30pm 13.9 9.7 -0.9 36 6.1 SSW 11 15 6 8 1019.1 1018.9 0.0
17/06:00pm 14.1 9.1 -1.1 35 6.3 SSW 15 15 8 8 1018.8 1018.6 0.0
17/05:30pm 18.3 13.3 -1.5 26 8.4 SSW 15 15 8 8 1018.5 1018.2 0.0
17/05:00pm 21.2 15.9 -0.7 23 9.7 SSW 17 22 9 12 1018.2 1017.9 0.0
17/04:30pm 22.1 17.3 0.0 23 10.0 SSW 15 19 8 10 1017.9 1017.6 0.0
17/04:00pm 22.5 17.5 -0.9 21 10.5 SW 15 20 8 11 1017.8 1017.5 0.0
17/03:30pm 22.3 18.3 0.2 23 10.1 SSW 11 20 6 11 1017.9 1017.6 0.0
17/03:00pm 22.9 18.6 0.7 23 10.3 SW 13 22 7 12 1017.9 1017.6 0.0
17/02:30pm 23.3 19.2 2.2 25 10.1 S 13 22 7 12 1018.0 1017.7 0.0
17/02:00pm 22.6 17.8 -2.2 19 10.8 S 13 20 7 11 1018.2 1017.9 0.0
17/01:30pm 22.0 17.2 -0.1 23 10.0 SSW 15 24 8 13 1018.5 1018.2 0.0
17/01:00pm 21.7 17.6 -0.3 23 9.9 SE 11 17 6 9 1019.0 1018.8 0.0
17/12:30pm 20.8 16.5 1.1 27 9.0 SSW 13 22 7 12 1019.7 1019.4 0.0
17/12:00pm 19.6 16.1 1.1 29 8.4 SSE 9 17 5 9 1020.4 1020.1 0.0
17/11:30am 19.4 15.7 2.3 32 7.9 S 11 20 6 11 1020.9 1020.6 0.0
17/11:00am 18.5 14.0 2.4 34 7.4 SE 15 26 8 14 1021.3 1021.0 0.0
17/10:30am 17.7 13.6 2.1 35 7.1 SE 13 24 7 13 1021.5 1021.2 0.0
17/10:00am 17.0 11.9 3.0 39 6.5 SSE 19 26 10 14 1021.8 1021.5 0.0
17/09:30am 16.0 10.5 3.8 44 5.7 SSE 22 30 12 16 1021.8 1021.5 0.0
17/09:00am 15.1 9.3 4.2 48 5.1 SSE 24 33 13 18 1021.8 1021.5 0.0
17/08:30am 14.7 9.6 4.1 49 4.9 S 20 30 11 16 1021.6 1021.3 0.0
17/08:00am 13.8 8.3 3.9 51 4.5 S 22 32 12 17 1021.3 1021.0 0.0
17/07:30am 10.0 6.5 3.7 65 2.8 SW 11 17 6 9 1021.1 1020.8 0.0
17/07:00am 8.1 3.7 2.8 69 2.2 SW 15 19 8 10 1020.8 1020.5 0.0
17/06:30am 9.1 4.4 2.9 65 2.7 SSW 17 20 9 11 1020.6 1020.3 0.0
17/06:00am 8.7 4.0 2.9 67 2.5 SSW 17 20 9 11 1020.4 1020.1 0.0
17/05:30am 8.0 3.2 2.5 68 2.3 SSW 17 20 9 11 1020.4 1020.1 0.0
17/05:00am 8.6 3.8 2.6 66 2.5 S 17 20 9 11 1020.3 1020.0 0.0
17/04:30am 8.1 2.8 2.1 66 2.5 SSW 19 24 10 13 1020.3 1020.0 0.0
17/04:00am 9.0 4.2 2.6 64 2.7 SSW 17 20 9 11 1020.2 1019.9 0.0
17/03:30am 8.9 4.4 2.3 63 2.8 SSW 15 19 8 10 1020.2 1019.9 0.0
17/03:00am 9.0 4.1 1.7 60 3.0 SSW 17 20 9 11 1020.2 1019.9 0.0
17/02:30am 9.8 5.0 0.4 52 3.8 S 15 24 8 13 1020.5 1020.2 0.0
17/02:00am 12.8 7.2 1.2 45 5.0 S 20 26 11 14 1020.8 1020.5 0.0
17/01:30am 12.7 7.3 1.1 45 5.0 SSE 19 26 10 14 1020.9 1020.6 0.0
17/01:00am 10.0 5.8 1.9 57 3.4 S 13 19 7 10 1021.2 1020.9 0.0
17/12:30am 8.4 3.8 1.3 61 2.9 S 15 19 8 10 1021.2 1020.9 0.0
17/12:00am 8.1 2.7 1.3 62 2.8 SSW 19 20 10 11 1021.4 1021.1 0.0
 
Date/Time
EST
Temp
°C
App
Temp
°C
Dew
Point
°C
Rel
Hum
%
Delta-T
°C
Wind Press
QNH
hPa
Press
MSL
hPa
Rain since
9am
mm
Dir  Spd
km/h
Gust
km/h
Spd
kts
Gust
kts
16/11:30pm 8.4 4.5 0.9 59 3.1 S 11 15 6 8 1021.4 1021.1 0.0
16/11:00pm 8.6 3.2 1.3 60 3.0 SSW 19 20 10 11 1021.5 1021.2 0.0
16/10:30pm 8.7 3.7 1.1 59 3.1 SSW 17 20 9 11 1021.6 1021.3 0.0
16/10:00pm 8.2 3.9 0.9 60 3.0 S 13 17 7 9 1021.6 1021.3 0.0
16/09:30pm 9.8 5.9 1.2 55 3.6 S 11 15 6 8 1021.7 1021.4 0.0
16/09:00pm 8.4 5.0 1.6 62 2.8 S 9 13 5 7 1021.8 1021.5 0.0
16/08:30pm 9.2 5.8 1.6 59 3.2 SSW 9 11 5 6 1021.6 1021.3 0.0
16/08:00pm 10.9 7.0 1.4 52 4.0 SSW 11 15 6 8 1021.2 1020.9 0.0
16/07:30pm 12.0 8.5 1.3 48 4.6 SSW 9 13 5 7 1021.1 1020.8 0.0
16/07:00pm 12.6 8.3 0.7 44 5.0 S 13 15 7 8 1020.8 1020.5 0.0
16/06:30pm 14.4 10.0 0.6 39 5.9 SSE 13 17 7 9 1020.5 1020.2 0.0
16/06:00pm 15.3 11.6 -0.1 35 6.6 S 9 13 5 7 1020.2 1019.9 0.0
16/05:30pm 17.8 14.6 0.5 31 7.7 SSE 7 11 4 6 1019.8 1019.5 0.0
16/05:00pm 19.5 14.7 0.5 28 8.5 S 15 19 8 10 1019.6 1019.3 0.0
16/04:30pm 20.0 15.2 -0.1 26 8.9 S 15 24 8 13 1019.2 1019.0 0.0
16/04:00pm 20.1 15.7 0.5 27 8.8 SSE 13 20 7 11 1019.1 1018.9 0.0
16/03:30pm 20.3 16.0 0.7 27 8.9 SSE 13 20 7 11 1019.1 1018.9 0.0
16/03:00pm 20.2 15.8 0.1 26 9.0 SSW 13 22 7 12 1019.3 1019.1 0.0
16/02:30pm 19.9 15.2 0.9 28 8.6 S 15 24 8 13 1019.3 1019.1 0.0
16/02:00pm 19.2 14.9 0.8 29 8.3 SSE 13 20 7 11 1019.6 1019.3 0.0
16/01:30pm 19.6 15.5 2.0 31 8.1 SSE 13 20 7 11 1019.8 1019.5 0.0
16/01:00pm 17.9 13.2 0.6 31 7.6 S 15 20 8 11 1020.4 1020.1 0.0
16/12:30pm 18.2 14.9 2.5 35 7.3 SSW 9 17 5 9 1020.8 1020.5 0.0
16/12:00pm 17.0 13.1 1.4 35 7.0 ESE 11 15 6 8 1021.5 1021.2 0.0
16/11:30am 17.0 12.9 2.2 37 6.7 SSE 13 22 7 12 1022.0 1021.7 0.0
16/11:00am 15.6 11.5 2.1 40 6.0 SSE 13 26 7 14 1022.4 1022.1 0.0
16/10:30am 15.4 10.2 2.2 41 5.9 SSE 19 24 10 13 1022.9 1022.6 0.0
16/10:00am 14.7 8.9 2.3 43 5.5 SSE 22 35 12 19 1023.2 1023.0 0.0
16/09:30am 14.1 7.2 2.7 46 5.1 SSE 28 39 15 21 1023.3 1023.1 0.0
16/09:00am 13.3 6.0 2.5 48 4.8 SSE 30 39 16 21 1023.2 1023.0 0.0
16/08:30am 13.0 6.6 3.1 51 4.4 SSE 26 35 14 19 1022.9 1022.6 0.0
16/08:00am 11.5 6.2 3.0 56 3.7 S 20 28 11 15 1022.8 1022.5 0.0
16/07:30am 10.6 5.5 2.9 59 3.4 S 19 26 10 14 1022.4 1022.1 0.0
16/07:00am 9.8 5.1 2.9 62 3.0 S 17 26 9 14 1022.0 1021.7 0.0
16/06:30am 9.6 4.8 2.7 62 3.0 SSE 17 24 9 13 1021.7 1021.4 0.0
16/06:00am 10.3 3.8 2.7 59 3.3 S 26 33 14 18 1021.3 1021.0 0.0
16/05:30am 10.3 4.9 2.7 59 3.3 S 20 32 11 17 1021.3 1021.0 0.0
16/05:00am 8.4 3.9 2.4 66 2.5 S 15 20 8 11 1021.3 1021.0 0.0
16/04:30am 9.5 5.8 2.4 61 3.0 S 11 15 6 8 1021.4 1021.1 0.0
16/04:00am 9.4 6.1 2.3 61 3.0 SSE 9 13 5 7 1021.4 1021.1 0.0
16/03:30am 8.2 4.7 1.1 61 2.9 S 9 17 5 9 1021.5 1021.2 0.0
16/03:00am 10.8 5.3 1.9 54 3.8 S 20 24 11 13 1021.4 1021.1 0.0
16/02:30am 11.0 6.1 1.8 53 3.9 S 17 20 9 11 1021.5 1021.2 0.0
16/02:00am 12.0 7.0 1.6 49 4.5 S 17 26 9 14 1021.5 1021.2 0.0
16/01:30am 12.1 7.1 1.4 48 4.6 S 17 22 9 12 1021.4 1021.1 0.0
16/01:00am 12.7 7.3 1.4 46 4.8 S 19 26 10 14 1021.3 1021.0 0.0
16/12:30am 13.1 7.8 2.1 47 4.8 S 19 24 10 13 1021.5 1021.2 0.0
16/12:00am 8.8 4.6 1.5 60 3.0 S 13 17 7 9 1021.6 1021.3 0.0
 
Date/Time
EST
Temp
°C
App
Temp
°C
Dew
Point
°C
Rel
Hum
%
Delta-T
°C
Wind Press
QNH
hPa
Press
MSL
hPa
Rain since
9am
mm
Dir  Spd
km/h
Gust
km/h
Spd
kts
Gust
kts
15/11:30pm 9.4 5.1 1.1 56 3.4 S 13 15 7 8 1021.7 1021.4 0.0
15/11:00pm 12.4 7.8 1.4 47 4.7 S 15 19 8 10 1021.8 1021.5 0.0
15/10:30pm 10.9 7.2 2.2 55 3.8 SSE 11 13 6 7 1021.8 1021.5 0.0
15/10:00pm 7.9 5.6 0.6 60 2.9 S 2 7 1 4 1021.8 1021.5 0.0
15/09:30pm 8.6 5.4 0.6 57 3.3 SSW 7 9 4 5 1021.8 1021.5 0.0
15/09:00pm 8.7 4.6 -0.1 54 3.5 SSW 11 13 6 7 1021.5 1021.2 0.0
15/08:30pm 12.1 7.7 0.5 45 4.9 S 13 15 7 8 1021.3 1021.0 0.0
15/08:00pm 11.7 7.2 -0.4 43 4.9 S 13 17 7 9 1021.4 1021.1 0.0
15/07:30pm 12.5 7.7 0.0 42 5.2 S 15 19 8 10 1021.1 1020.8 0.0
15/07:00pm 13.9 8.7 -0.2 38 5.9 SSW 17 20 9 11 1020.9 1020.6 0.0
15/06:30pm 16.3 11.0 -0.4 32 7.2 SSE 17 24 9 13 1020.6 1020.3 0.0
15/06:00pm 15.6 10.6 -1.4 31 7.1 S 15 19 8 10 1020.3 1020.0 0.0

Other formats

Comma delimited format used in spreadsheet applications
http://www.bom.gov.au/fwo/IDQ60801/IDQ60801.94398.axf

JavaScript Object Notation format (JSON) in row-major order
http://www.bom.gov.au/fwo/IDQ60801/IDQ60801.94398.json

Data quality

Most of these data are generated automatically and are frequently updated. Quality checks on data are not normally performed. It is possible for incorrect values to appear. Refer to information at About Latest Weather Observations and please check the disclaimer before using these data.